createdAt,value
2024-03-22T00:02:20.877Z,100.00
2024-03-22T00:04:48.215Z,100.00
2024-03-22T00:07:15.528Z,100.00
2024-03-22T00:09:42.828Z,100.00
2024-03-22T00:12:10.176Z,100.00
2024-03-22T00:14:37.517Z,100.00
2024-03-22T00:17:04.988Z,100.00
2024-03-22T00:19:32.341Z,100.00
2024-03-22T00:21:59.681Z,100.00
2024-03-22T00:24:26.990Z,100.00
2024-03-22T00:26:54.300Z,100.00
2024-03-22T00:29:21.730Z,100.00
2024-03-22T00:31:49.012Z,100.00
2024-03-22T00:34:16.366Z,100.00
2024-03-22T00:36:44.004Z,100.00
2024-03-22T00:39:11.440Z,100.00
2024-03-22T00:41:38.773Z,100.00
2024-03-22T00:44:06.086Z,100.00
2024-03-22T00:46:33.603Z,100.00
2024-03-22T00:51:14.817Z,100.00
2024-03-22T00:53:41.466Z,100.00
2024-03-22T00:56:08.107Z,100.00
2024-03-22T00:58:34.928Z,100.00
2024-03-22T01:01:01.479Z,100.00
2024-03-22T01:03:28.340Z,100.00
2024-03-22T01:05:54.933Z,100.00
2024-03-22T01:08:21.654Z,100.00
2024-03-22T01:10:48.442Z,100.00
2024-03-22T01:13:15.706Z,100.00
2024-03-22T01:15:42.342Z,100.00
2024-03-22T01:18:09.080Z,100.00
2024-03-22T01:20:35.695Z,100.00
2024-03-22T01:24:39.305Z,100.00
2024-03-22T01:27:06.820Z,100.00
2024-03-22T01:29:34.099Z,100.00
2024-03-22T01:32:01.452Z,100.00
2024-03-22T01:34:28.801Z,100.00
2024-03-22T01:36:56.131Z,100.00
2024-03-22T01:39:23.525Z,100.00
2024-03-22T01:41:53.941Z,100.00
2024-03-22T01:44:28.253Z,100.00
2024-03-22T01:46:55.703Z,100.00
2024-03-22T01:49:23.163Z,100.00
2024-03-22T01:51:50.473Z,100.00
2024-03-22T01:54:18.711Z,100.00
2024-03-22T01:56:46.643Z,100.00
2024-03-22T01:59:14.032Z,100.00
2024-03-22T02:01:42.026Z,100.00
2024-03-22T02:04:09.290Z,100.00
2024-03-22T02:06:36.620Z,100.00
2024-03-22T02:09:05.858Z,100.00
2024-03-22T02:11:33.214Z,100.00
2024-03-22T02:14:00.526Z,100.00
2024-03-22T02:16:27.888Z,100.00
2024-03-22T02:18:55.485Z,100.00
2024-03-22T02:21:22.816Z,100.00
2024-03-22T02:23:50.159Z,100.00
2024-03-22T02:26:17.449Z,100.00
2024-03-22T02:28:44.814Z,100.00
2024-03-22T02:31:12.257Z,100.00
2024-03-22T02:33:39.523Z,100.00
2024-03-22T02:36:06.892Z,100.00
2024-03-22T02:38:34.361Z,100.00
2024-03-22T02:41:01.828Z,100.00
2024-03-22T02:43:29.108Z,100.00
2024-03-22T02:45:56.493Z,100.00
2024-03-22T02:48:23.759Z,100.00
2024-03-22T02:50:51.026Z,100.00
2024-03-22T02:53:18.372Z,100.00
2024-03-22T02:55:45.713Z,100.00
2024-03-22T02:58:13.012Z,100.00
2024-03-22T03:00:40.546Z,100.00
2024-03-22T03:03:08.112Z,100.00
2024-03-22T03:05:38.234Z,100.00
2024-03-22T03:08:05.668Z,100.00
2024-03-22T03:10:32.962Z,100.00
2024-03-22T03:13:00.355Z,100.00
2024-03-22T03:15:27.665Z,100.00
2024-03-22T03:17:54.949Z,100.00
2024-03-22T03:20:22.243Z,100.00
2024-03-22T03:22:49.543Z,100.00
2024-03-22T03:25:16.996Z,100.00
2024-03-22T03:27:44.290Z,100.00
2024-03-22T03:30:11.941Z,100.00
2024-03-22T03:32:39.258Z,100.00
2024-03-22T03:35:06.767Z,100.00
2024-03-22T03:37:34.118Z,100.00
2024-03-22T03:40:01.604Z,100.00
2024-03-22T03:42:28.992Z,100.00
2024-03-22T03:44:57.015Z,100.00
2024-03-22T03:47:24.658Z,100.00
2024-03-22T03:49:53.424Z,100.00
2024-03-22T03:52:20.806Z,100.00
2024-03-22T03:54:48.102Z,100.00
2024-03-22T03:57:15.438Z,100.00
2024-03-22T03:59:42.790Z,100.00
2024-03-22T04:02:10.157Z,100.00
2024-03-22T04:04:37.758Z,100.00
2024-03-22T04:07:05.070Z,100.00
2024-03-22T04:09:32.404Z,100.00
2024-03-22T04:11:59.991Z,100.00
2024-03-22T04:14:27.747Z,100.00
2024-03-22T04:16:56.936Z,100.00
2024-03-22T04:19:24.550Z,100.00
2024-03-22T04:21:51.880Z,100.00
2024-03-22T04:24:19.184Z,100.00
2024-03-22T04:26:46.480Z,100.00
2024-03-22T04:29:13.860Z,100.00
2024-03-22T04:31:41.233Z,100.00
2024-03-22T04:34:08.557Z,100.00
2024-03-22T04:36:35.874Z,100.00
2024-03-22T04:39:03.857Z,100.00
2024-03-22T04:41:31.098Z,100.00
2024-03-22T04:43:58.488Z,100.00
2024-03-22T04:46:25.848Z,100.00
2024-03-22T04:48:53.185Z,100.00
2024-03-22T04:51:21.014Z,100.00
2024-03-22T04:53:48.299Z,100.00
2024-03-22T04:56:15.848Z,100.00
2024-03-22T04:58:43.298Z,100.00
2024-03-22T05:01:12.596Z,100.00
2024-03-22T05:03:40.018Z,100.00
2024-03-22T05:06:07.694Z,100.00
2024-03-22T05:08:35.030Z,100.00
2024-03-22T05:11:02.366Z,100.00
2024-03-22T05:13:29.875Z,100.00
2024-03-22T05:15:59.813Z,100.00
2024-03-22T05:18:27.200Z,100.00
2024-03-22T05:20:54.551Z,100.00
2024-03-22T05:23:21.836Z,100.00
2024-03-22T05:25:49.197Z,100.00
2024-03-22T05:28:16.554Z,100.00
2024-03-22T05:30:43.837Z,100.00
2024-03-22T05:33:11.110Z,100.00
2024-03-22T05:35:39.146Z,100.00
2024-03-22T05:38:06.449Z,100.00
2024-03-22T05:40:33.771Z,100.00
2024-03-22T05:43:01.123Z,100.00
2024-03-22T05:45:28.477Z,100.00
2024-03-22T05:47:55.821Z,100.00
2024-03-22T05:50:23.191Z,100.00
2024-03-22T05:52:50.532Z,100.00
2024-03-22T05:55:17.936Z,100.00
2024-03-22T05:57:45.422Z,100.00
2024-03-22T06:00:14.540Z,100.00
2024-03-22T06:02:42.144Z,100.00
2024-03-22T06:05:09.594Z,100.00
2024-03-22T06:07:42.916Z,100.00
2024-03-22T06:10:11.337Z,100.00
2024-03-22T06:12:39.109Z,100.00
2024-03-22T06:15:07.268Z,100.00
2024-03-22T06:17:35.323Z,100.00
2024-03-22T06:20:03.472Z,100.00
2024-03-22T06:22:35.164Z,100.00
2024-03-22T06:25:05.605Z,100.00
2024-03-22T06:27:32.857Z,100.00
2024-03-22T06:30:00.580Z,100.00
2024-03-22T06:32:28.118Z,100.00
2024-03-22T06:34:55.595Z,100.00
2024-03-22T06:37:23.512Z,100.00
2024-03-22T06:39:50.942Z,100.00
2024-03-22T06:42:18.484Z,100.00
2024-03-22T06:44:45.901Z,100.00
2024-03-22T06:47:13.339Z,100.00
2024-03-22T06:49:40.647Z,100.00
2024-03-22T06:52:08.022Z,100.00
2024-03-22T06:54:35.420Z,100.00
2024-03-22T06:57:02.827Z,100.00
2024-03-22T06:59:34.540Z,100.00
2024-03-22T07:02:02.097Z,100.00
2024-03-22T07:04:29.774Z,100.00
2024-03-22T07:06:57.249Z,100.00
2024-03-22T07:09:24.879Z,100.00
2024-03-22T07:11:52.354Z,100.00
2024-03-22T07:14:20.025Z,100.00
2024-03-22T07:16:49.528Z,100.00
2024-03-22T07:19:20.091Z,100.00
2024-03-22T07:21:53.201Z,100.00
2024-03-22T07:24:20.688Z,100.00
2024-03-22T07:26:48.103Z,100.00
2024-03-22T07:29:15.541Z,100.00
2024-03-22T07:31:43.110Z,100.00
2024-03-22T07:34:13.582Z,99.88
2024-03-22T07:36:41.077Z,99.34
2024-03-22T07:39:08.841Z,98.37
2024-03-22T07:41:36.290Z,97.61
2024-03-22T07:44:03.907Z,97.54
2024-03-22T07:46:34.007Z,97.17
2024-03-22T07:49:01.645Z,97.59
2024-03-22T07:51:29.324Z,97.23
2024-03-22T07:53:57.034Z,96.74
2024-03-22T07:56:24.691Z,96.46
2024-03-22T07:58:53.271Z,95.28
2024-03-22T08:01:20.717Z,94.28
2024-03-22T08:03:52.237Z,94.46
2024-03-22T08:06:20.105Z,94.54
2024-03-22T08:08:47.731Z,94.95
2024-03-22T08:11:18.322Z,95.17
2024-03-22T08:13:48.097Z,94.91
2024-03-22T08:16:15.563Z,94.82
2024-03-22T08:18:43.655Z,94.01
2024-03-22T08:21:11.419Z,93.64
2024-03-22T08:23:39.850Z,91.90
2024-03-22T08:26:08.442Z,91.19
2024-03-22T08:28:38.646Z,90.05
2024-03-22T08:31:08.059Z,88.61
2024-03-22T08:33:35.536Z,87.86
2024-03-22T08:36:05.867Z,86.88
2024-03-22T08:38:34.185Z,85.59
2024-03-22T08:41:01.743Z,85.14
2024-03-22T08:43:30.318Z,84.09
2024-03-22T08:45:59.010Z,83.68
2024-03-22T08:48:26.415Z,82.90
2024-03-22T08:50:54.017Z,81.68
2024-03-22T08:53:21.943Z,79.70
2024-03-22T08:55:56.098Z,77.82
2024-03-22T08:58:23.890Z,76.91
2024-03-22T09:00:51.499Z,77.27
2024-03-22T09:03:19.414Z,77.57
2024-03-22T09:05:56.458Z,77.83
2024-03-22T09:08:30.517Z,77.73
2024-03-22T09:11:00.585Z,77.55
2024-03-22T09:13:28.066Z,76.10
2024-03-22T09:15:59.384Z,74.55
2024-03-22T09:18:27.409Z,74.65
2024-03-22T09:20:54.826Z,73.77
2024-03-22T09:23:22.316Z,73.71
2024-03-22T09:25:52.718Z,73.84
2024-03-22T09:28:23.722Z,73.91
2024-03-22T09:30:57.666Z,73.18
2024-03-22T09:33:26.354Z,72.78
2024-03-22T09:35:54.728Z,72.28
2024-03-22T09:38:22.766Z,70.96
2024-03-22T09:40:55.213Z,70.88
2024-03-22T09:43:22.890Z,70.80
2024-03-22T09:45:50.988Z,69.65
2024-03-22T09:48:21.601Z,68.07
2024-03-22T09:50:49.306Z,67.76
2024-03-22T09:53:22.129Z,67.41
2024-03-22T09:55:50.353Z,67.22
2024-03-22T09:58:20.664Z,66.79
2024-03-22T10:00:48.249Z,66.49
2024-03-22T10:03:16.881Z,66.41
2024-03-22T10:05:46.539Z,66.12
2024-03-22T10:08:14.421Z,65.25
2024-03-22T10:10:42.836Z,64.95
2024-03-22T10:13:10.581Z,65.40
2024-03-22T10:15:38.499Z,64.78
2024-03-22T10:18:06.823Z,63.64
2024-03-22T10:20:34.390Z,63.22
2024-03-22T10:23:02.024Z,62.80
2024-03-22T10:25:32.796Z,62.82
2024-03-22T10:28:00.704Z,62.05
2024-03-22T10:30:28.348Z,62.27
2024-03-22T10:32:58.710Z,61.91
2024-03-22T10:35:29.075Z,60.62
2024-03-22T10:37:56.582Z,59.38
2024-03-22T10:40:24.015Z,58.36
2024-03-22T10:42:51.857Z,57.43
2024-03-22T10:45:23.490Z,57.33
2024-03-22T10:47:54.081Z,56.27
2024-03-22T10:50:21.663Z,55.44
2024-03-22T10:52:49.227Z,54.81
2024-03-22T10:55:31.881Z,54.48
2024-03-22T10:58:05.726Z,53.58
2024-03-22T11:00:36.302Z,53.52
2024-03-22T11:03:04.366Z,53.21
2024-03-22T11:05:31.851Z,53.19
2024-03-22T11:08:05.466Z,53.78
2024-03-22T11:10:36.886Z,54.28
2024-03-22T11:13:05.678Z,54.42
2024-03-22T11:15:34.289Z,54.75
2024-03-22T11:18:01.963Z,55.20
2024-03-22T11:20:30.864Z,55.62
2024-03-22T11:22:58.456Z,55.81
2024-03-22T11:25:26.295Z,54.63
2024-03-22T11:27:55.494Z,53.84
2024-03-22T11:30:25.575Z,54.07
2024-03-22T11:32:53.450Z,54.56
2024-03-22T11:35:20.943Z,54.67
2024-03-22T11:37:51.888Z,54.03
2024-03-22T11:40:19.723Z,53.79
2024-03-22T11:42:50.477Z,52.21
2024-03-22T11:45:19.388Z,51.03
2024-03-22T11:47:49.812Z,51.37
2024-03-22T11:50:18.945Z,52.01
2024-03-22T11:52:49.627Z,52.17
2024-03-22T11:55:17.023Z,51.81
2024-03-22T11:57:50.111Z,51.59
2024-03-22T12:00:44.629Z,52.23
2024-03-22T12:03:16.683Z,52.56
2024-03-22T12:05:44.202Z,52.47
2024-03-22T12:08:14.155Z,52.26
2024-03-22T12:10:41.901Z,52.15
2024-03-22T12:13:09.808Z,52.18
2024-03-22T12:15:37.222Z,52.74
2024-03-22T12:18:10.275Z,52.75
2024-03-22T12:20:38.454Z,51.74
2024-03-22T12:23:05.944Z,51.71
2024-03-22T12:25:33.645Z,52.32
2024-03-22T12:28:01.390Z,52.17
2024-03-22T12:30:31.546Z,51.81
2024-03-22T12:32:59.061Z,51.45
2024-03-22T12:35:27.272Z,51.70
2024-03-22T12:37:54.988Z,51.78
2024-03-22T12:40:22.408Z,51.90
2024-03-22T12:42:53.019Z,52.02
2024-03-22T12:45:20.457Z,52.38
2024-03-22T12:47:48.033Z,52.26
2024-03-22T12:50:16.189Z,51.87
2024-03-22T12:52:45.893Z,51.75
2024-03-22T12:55:13.439Z,51.76
2024-03-22T12:57:41.371Z,51.67
2024-03-22T13:00:14.078Z,51.20
2024-03-22T13:02:42.134Z,51.33
2024-03-22T13:05:11.320Z,50.86
2024-03-22T13:07:39.269Z,50.92
2024-03-22T13:10:07.261Z,50.49
2024-03-22T13:12:35.635Z,50.53
2024-03-22T13:15:12.807Z,50.38
2024-03-22T13:17:45.114Z,50.41
2024-03-22T13:20:16.064Z,50.35
2024-03-22T13:22:46.947Z,50.78
2024-03-22T13:25:17.554Z,51.16
2024-03-22T13:27:44.980Z,51.33
2024-03-22T13:30:18.817Z,51.50
2024-03-22T13:32:46.315Z,51.36
2024-03-22T13:35:14.966Z,51.64
2024-03-22T13:37:42.573Z,51.59
2024-03-22T13:40:11.931Z,50.90
2024-03-22T13:42:41.796Z,50.93
2024-03-22T13:45:09.544Z,51.50
2024-03-22T13:47:38.659Z,51.45
2024-03-22T13:50:06.908Z,51.16
2024-03-22T13:52:34.350Z,51.29
2024-03-22T13:55:03.377Z,51.29
2024-03-22T13:57:33.090Z,51.11
2024-03-22T14:00:04.420Z,51.00
2024-03-22T14:02:41.292Z,51.08
2024-03-22T14:05:09.990Z,51.09
2024-03-22T14:07:42.030Z,51.47
2024-03-22T14:10:09.879Z,51.65
2024-03-22T14:12:49.053Z,51.41
2024-03-22T14:15:17.552Z,51.52
2024-03-22T14:17:45.272Z,51.27
2024-03-22T14:20:12.960Z,51.03
2024-03-22T14:22:41.411Z,51.04
2024-03-22T14:25:09.538Z,50.84
2024-03-22T14:27:38.636Z,50.93
2024-03-22T14:30:08.549Z,50.95
2024-03-22T14:32:37.009Z,51.17
2024-03-22T14:35:07.791Z,51.36
2024-03-22T14:37:38.599Z,51.31
2024-03-22T14:40:08.374Z,51.30
2024-03-22T14:42:39.189Z,51.01
2024-03-22T14:45:07.102Z,50.83
2024-03-22T14:47:36.077Z,51.04
2024-03-22T14:50:07.079Z,51.18
2024-03-22T14:52:34.519Z,50.77
2024-03-22T14:55:02.009Z,49.98
2024-03-22T14:57:30.822Z,49.20
2024-03-22T14:59:59.282Z,48.98
2024-03-22T15:02:26.762Z,49.01
2024-03-22T15:04:54.193Z,49.44
2024-03-22T15:07:23.587Z,49.50
2024-03-22T15:09:51.639Z,49.50
2024-03-22T15:12:19.056Z,49.80
2024-03-22T15:14:46.463Z,50.07
2024-03-22T15:17:17.211Z,50.18
2024-03-22T15:19:44.646Z,50.58
2024-03-22T15:22:12.291Z,50.85
2024-03-22T15:24:39.665Z,51.09
2024-03-22T15:27:08.695Z,51.39
2024-03-22T15:29:36.147Z,51.76
2024-03-22T15:32:03.884Z,52.19
2024-03-22T15:34:31.563Z,52.64
2024-03-22T15:36:58.971Z,52.94
2024-03-22T15:39:29.262Z,53.09
2024-03-22T15:41:56.762Z,53.40
2024-03-22T15:44:26.632Z,54.09
2024-03-22T15:46:55.883Z,54.45
2024-03-22T15:49:23.424Z,55.01
2024-03-22T15:51:50.863Z,55.82
2024-03-22T15:54:18.417Z,56.19
2024-03-22T15:56:46.056Z,56.60
2024-03-22T15:59:13.428Z,57.05
2024-03-22T16:01:40.880Z,57.24
2024-03-22T16:04:08.455Z,57.64
2024-03-22T16:06:35.876Z,58.24
2024-03-22T16:09:03.999Z,58.47
2024-03-22T16:11:31.814Z,58.80
2024-03-22T16:13:59.331Z,59.21
2024-03-22T16:16:27.314Z,59.47
2024-03-22T16:18:54.850Z,59.77
2024-03-22T16:21:22.869Z,60.08
2024-03-22T16:23:50.269Z,60.18
2024-03-22T16:26:17.709Z,59.97
2024-03-22T16:28:45.229Z,60.48
2024-03-22T16:31:12.633Z,60.85
2024-03-22T16:33:40.056Z,61.10
2024-03-22T16:36:07.722Z,61.47
2024-03-22T16:38:35.141Z,61.96
2024-03-22T16:41:04.765Z,62.33
2024-03-22T16:43:32.362Z,62.36
2024-03-22T16:45:59.706Z,62.38
2024-03-22T16:48:28.546Z,62.63
2024-03-22T16:50:56.178Z,62.90
2024-03-22T16:53:23.777Z,62.97
2024-03-22T16:55:52.903Z,63.34
2024-03-22T16:58:20.951Z,63.43
2024-03-22T17:00:48.464Z,63.46
2024-03-22T17:03:16.127Z,63.42
2024-03-22T17:05:43.538Z,63.55
2024-03-22T17:08:11.124Z,63.83
2024-03-22T17:10:42.762Z,64.30
2024-03-22T17:13:10.203Z,64.86
2024-03-22T17:15:38.213Z,65.73
2024-03-22T17:18:06.096Z,66.95
2024-03-22T17:20:33.605Z,67.90
2024-03-22T17:23:01.120Z,68.74
2024-03-22T17:25:28.683Z,69.60
2024-03-22T17:27:56.141Z,70.40
2024-03-22T17:30:23.542Z,71.16
2024-03-22T17:32:50.985Z,71.90
2024-03-22T17:35:19.045Z,72.53
2024-03-22T17:37:47.491Z,72.94
2024-03-22T17:40:20.628Z,73.39
2024-03-22T17:42:48.112Z,73.63
2024-03-22T17:45:15.569Z,74.15
2024-03-22T17:47:48.399Z,74.28
2024-03-22T17:50:16.721Z,74.48
2024-03-22T17:52:44.175Z,74.97
2024-03-22T17:55:11.516Z,75.25
2024-03-22T17:57:38.957Z,75.15
2024-03-22T18:00:07.465Z,75.44
2024-03-22T18:02:34.829Z,76.00
2024-03-22T18:05:02.345Z,76.35
2024-03-22T18:07:29.715Z,76.93
2024-03-22T18:09:57.079Z,76.92
2024-03-22T18:12:24.698Z,77.25
2024-03-22T18:14:52.115Z,77.89
2024-03-22T18:17:19.598Z,78.08
2024-03-22T18:19:47.226Z,77.93
2024-03-22T18:22:14.581Z,78.05
2024-03-22T18:24:42.625Z,78.28
2024-03-22T18:27:10.207Z,77.88
2024-03-22T18:29:37.678Z,77.55
2024-03-22T18:32:05.936Z,77.56
2024-03-22T18:34:34.520Z,77.64
2024-03-22T18:37:02.112Z,77.45
2024-03-22T18:39:29.697Z,77.35
2024-03-22T18:41:57.251Z,77.43
2024-03-22T18:44:24.639Z,78.01
2024-03-22T18:46:52.036Z,78.13
2024-03-22T18:49:19.696Z,78.39
2024-03-22T18:51:47.148Z,78.89
2024-03-22T18:54:17.035Z,79.13
2024-03-22T18:56:44.506Z,79.59
2024-03-22T18:59:11.890Z,80.32
2024-03-22T19:01:39.376Z,80.73
2024-03-22T19:04:06.820Z,81.07
2024-03-22T19:06:34.216Z,81.30
2024-03-22T19:09:01.862Z,81.22
2024-03-22T19:11:30.045Z,81.33
2024-03-22T19:13:57.408Z,81.52
2024-03-22T19:16:27.677Z,81.74
2024-03-22T19:18:56.744Z,81.98
2024-03-22T19:21:24.278Z,82.35
2024-03-22T19:23:51.716Z,82.57
2024-03-22T19:26:19.095Z,83.60
2024-03-22T19:28:46.511Z,84.26
2024-03-22T19:31:13.899Z,84.69
2024-03-22T19:33:43.009Z,85.62
2024-03-22T19:36:11.383Z,86.24
2024-03-22T19:38:38.859Z,87.21
2024-03-22T19:41:06.231Z,88.03
2024-03-22T19:43:35.740Z,88.51
2024-03-22T19:46:06.549Z,89.58
2024-03-22T19:48:35.647Z,90.29
2024-03-22T19:51:07.783Z,90.43
2024-03-22T19:53:35.256Z,90.60
2024-03-22T19:56:02.689Z,90.29
2024-03-22T19:58:30.096Z,90.32
2024-03-22T20:01:01.023Z,90.06
2024-03-22T20:03:28.480Z,89.57
2024-03-22T20:05:55.906Z,89.48
2024-03-22T20:08:23.337Z,89.51
2024-03-22T20:10:50.688Z,89.63
2024-03-22T20:13:18.055Z,89.71
2024-03-22T20:15:45.571Z,89.57
2024-03-22T20:18:12.932Z,89.59
2024-03-22T20:20:40.308Z,89.65
2024-03-22T20:23:10.272Z,89.50
2024-03-22T20:25:39.630Z,89.51
2024-03-22T20:28:08.354Z,89.44
2024-03-22T20:30:35.766Z,89.66
2024-03-22T20:33:03.760Z,89.69
2024-03-22T20:35:33.039Z,89.70
2024-03-22T20:38:00.380Z,89.57
2024-03-22T20:40:28.233Z,89.75
2024-03-22T20:42:55.591Z,89.63
2024-03-22T20:45:23.175Z,89.77
2024-03-22T20:47:52.246Z,89.98
2024-03-22T20:50:19.686Z,90.22
2024-03-22T20:52:47.197Z,90.58
2024-03-22T20:55:14.875Z,90.91
2024-03-22T20:57:46.354Z,91.33
2024-03-22T21:00:14.230Z,91.50
2024-03-22T21:02:42.094Z,91.77
2024-03-22T21:05:10.268Z,92.26
2024-03-22T21:07:38.298Z,92.28
2024-03-22T21:10:10.007Z,92.49
2024-03-22T21:12:37.450Z,92.85
2024-03-22T21:15:04.885Z,93.21
2024-03-22T21:17:32.273Z,92.98
2024-03-22T21:19:59.677Z,93.63
2024-03-22T21:22:27.706Z,94.05
2024-03-22T21:24:55.126Z,94.64
2024-03-22T21:27:23.988Z,95.04
2024-03-22T21:29:51.278Z,95.08
2024-03-22T21:32:18.685Z,94.87
2024-03-22T21:34:46.020Z,94.50
2024-03-22T21:37:13.485Z,93.89
2024-03-22T21:39:40.929Z,93.42
2024-03-22T21:42:08.244Z,93.11
2024-03-22T21:44:35.639Z,93.09
2024-03-22T21:47:03.023Z,93.08
2024-03-22T21:49:30.409Z,93.52
2024-03-22T21:51:57.793Z,94.28
2024-03-22T21:54:28.585Z,94.96
2024-03-22T21:56:55.996Z,95.24
2024-03-22T21:59:23.390Z,95.45
2024-03-22T22:01:51.217Z,95.76
2024-03-22T22:04:18.499Z,96.26
2024-03-22T22:06:45.838Z,96.59
2024-03-22T22:09:13.153Z,96.83
2024-03-22T22:11:40.495Z,96.82
2024-03-22T22:14:07.769Z,97.40
2024-03-22T22:16:35.949Z,97.74
2024-03-22T22:19:03.227Z,98.05
2024-03-22T22:21:30.536Z,98.12
2024-03-22T22:23:57.914Z,98.26
2024-03-22T22:26:25.171Z,98.08
2024-03-22T22:28:52.503Z,98.05
2024-03-22T22:31:19.780Z,97.81
2024-03-22T22:33:48.641Z,97.83
2024-03-22T22:36:15.914Z,97.55
2024-03-22T22:38:43.240Z,97.69
2024-03-22T22:41:12.084Z,97.70
2024-03-22T22:43:39.380Z,97.82
2024-03-22T22:46:06.722Z,98.24
2024-03-22T22:48:34.631Z,98.55
2024-03-22T22:51:01.957Z,98.78
2024-03-22T22:53:29.356Z,99.15
2024-03-22T22:55:56.653Z,98.74
2024-03-22T22:58:23.920Z,98.46
2024-03-22T23:00:52.592Z,98.69
2024-03-22T23:03:22.391Z,98.73
2024-03-22T23:05:49.678Z,98.88
2024-03-22T23:08:17.349Z,98.86
2024-03-22T23:10:44.715Z,98.91
2024-03-22T23:13:13.257Z,98.90
2024-03-22T23:15:42.288Z,99.22
2024-03-22T23:18:09.609Z,99.00
2024-03-22T23:20:41.322Z,99.18
2024-03-22T23:23:09.538Z,99.65
2024-03-22T23:25:36.817Z,99.95
2024-03-22T23:28:04.177Z,99.94
2024-03-22T23:30:31.473Z,99.95
2024-03-22T23:32:58.783Z,99.97
2024-03-22T23:35:26.078Z,100.00
2024-03-22T23:37:53.381Z,100.00
2024-03-22T23:40:20.699Z,100.00
2024-03-22T23:42:48.062Z,100.00
2024-03-22T23:45:15.542Z,100.00
2024-03-22T23:47:42.846Z,100.00
2024-03-22T23:50:10.176Z,100.00
2024-03-22T23:52:37.478Z,100.00
2024-03-22T23:55:04.830Z,100.00
2024-03-22T23:57:32.097Z,100.00
